Arnold Bay, Vermont
Current Conditions -  °F | °C
As of 11:15 PM on Saturday 25 Oct 2014 (Local Time) from K6B0 Reporting Station
Broken Clouds Broken Clouds  
Wind Chill: 10°   Ceiling: 7500
Heat Index: 10°   Visibility: 10mi
Dew Point: 10°   Wind: 3mph
Humidity: 100%   Direction: 140°SE
Pressure: 29.48"   Gusts: NA
Location:  44.0804°N, 73.3324°W
Report Text: K6B0 260315Z AUTO 14003KT 10SM SCT065 BKN075 10/10 A2948 RMK AO2 LTG DSNT NE T01000100
Loading
Personal Weather Stations






























Interactive Weather Map
Tropical Storm Tracking
New forecast layout! Learn more

10-Day Weather Forecast

Advertisements
Track Severe Weather on mobile